sensor_id;sensor_type;location;lat;lon;timestamp;temperature;humidity
21037;DHT22;10677;50.942;4.028;2023-09-19T00:00:20;16.70;99.90
21037;DHT22;10677;50.942;4.028;2023-09-19T00:02:55;16.80;99.90
21037;DHT22;10677;50.942;4.028;2023-09-19T00:05:33;16.80;99.90
21037;DHT22;10677;50.942;4.028;2023-09-19T00:08:00;16.80;99.90
21037;DHT22;10677;50.942;4.028;2023-09-19T00:10:27;16.80;99.90
21037;DHT22;10677;50.942;4.028;2023-09-19T00:12:59;16.70;99.90
21037;DHT22;10677;50.942;4.028;2023-09-19T00:15:26;16.70;99.90
21037;DHT22;10677;50.942;4.028;2023-09-19T00:17:55;16.70;99.90
21037;DHT22;10677;50.942;4.028;2023-09-19T00:20:21;16.70;99.90
21037;DHT22;10677;50.942;4.028;2023-09-19T00:22:49;16.60;99.90
21037;DHT22;10677;50.942;4.028;2023-09-19T00:25:19;16.70;99.90
21037;DHT22;10677;50.942;4.028;2023-09-19T00:27:46;16.70;99.90
21037;DHT22;10677;50.942;4.028;2023-09-19T00:30:13;16.70;99.90
21037;DHT22;10677;50.942;4.028;2023-09-19T00:32:48;16.60;99.90
21037;DHT22;10677;50.942;4.028;2023-09-19T00:35:15;16.60;99.90
21037;DHT22;10677;50.942;4.028;2023-09-19T00:37:41;16.50;99.90
21037;DHT22;10677;50.942;4.028;2023-09-19T00:40:08;16.60;99.90
21037;DHT22;10677;50.942;4.028;2023-09-19T00:42:40;16.50;99.90
21037;DHT22;10677;50.942;4.028;2023-09-19T00:45:10;16.50;99.90
21037;DHT22;10677;50.942;4.028;2023-09-19T00:47:42;16.50;99.90
21037;DHT22;10677;50.942;4.028;2023-09-19T00:50:09;16.40;99.90
21037;DHT22;10677;50.942;4.028;2023-09-19T00:52:37;16.40;99.90
21037;DHT22;10677;50.942;4.028;2023-09-19T00:55:06;16.40;99.90
21037;DHT22;10677;50.942;4.028;2023-09-19T00:57:33;16.40;99.90
21037;DHT22;10677;50.942;4.028;2023-09-19T01:00:00;16.50;99.90
21037;DHT22;10677;50.942;4.028;2023-09-19T01:02:27;16.40;99.90
21037;DHT22;10677;50.942;4.028;2023-09-19T01:04:55;16.50;99.90
21037;DHT22;10677;50.942;4.028;2023-09-19T01:07:21;16.50;99.90
21037;DHT22;10677;50.942;4.028;2023-09-19T01:09:48;16.40;99.90
21037;DHT22;10677;50.942;4.028;2023-09-19T01:12:16;16.50;99.90
21037;DHT22;10677;50.942;4.028;2023-09-19T01:14:55;16.50;99.90
21037;DHT22;10677;50.942;4.028;2023-09-19T01:17:38;16.60;99.90
21037;DHT22;10677;50.942;4.028;2023-09-19T01:20:15;16.60;99.90
21037;DHT22;10677;50.942;4.028;2023-09-19T01:26:03;16.60;99.90
21037;DHT22;10677;50.942;4.028;2023-09-19T01:28:53;16.50;99.90
21037;DHT22;10677;50.942;4.028;2023-09-19T01:31:31;16.50;99.90
21037;DHT22;10677;50.942;4.028;2023-09-19T01:34:02;16.60;99.90
21037;DHT22;10677;50.942;4.028;2023-09-19T01:36:32;16.50;99.90
21037;DHT22;10677;50.942;4.028;2023-09-19T01:39:07;16.50;99.90
21037;DHT22;10677;50.942;4.028;2023-09-19T01:41:56;16.50;99.90
21037;DHT22;10677;50.942;4.028;2023-09-19T01:44:44;16.50;99.90
21037;DHT22;10677;50.942;4.028;2023-09-19T01:47:27;16.50;99.90
21037;DHT22;10677;50.942;4.028;2023-09-19T01:50:07;16.50;99.90
21037;DHT22;10677;50.942;4.028;2023-09-19T01:52:42;16.50;99.90
21037;DHT22;10677;50.942;4.028;2023-09-19T01:55:11;16.50;99.90
21037;DHT22;10677;50.942;4.028;2023-09-19T02:01:16;16.50;99.90
21037;DHT22;10677;50.942;4.028;2023-09-19T02:03:44;16.50;99.90
21037;DHT22;10677;50.942;4.028;2023-09-19T02:06:14;16.50;99.90
21037;DHT22;10677;50.942;4.028;2023-09-19T02:08:41;16.60;99.90
21037;DHT22;10677;50.942;4.028;2023-09-19T02:11:07;16.60;99.90
21037;DHT22;10677;50.942;4.028;2023-09-19T02:13:32;16.50;99.90
21037;DHT22;10677;50.942;4.028;2023-09-19T02:15:59;16.50;99.90
21037;DHT22;10677;50.942;4.028;2023-09-19T02:18:25;16.40;99.90
21037;DHT22;10677;50.942;4.028;2023-09-19T02:20:53;16.40;99.90
21037;DHT22;10677;50.942;4.028;2023-09-19T02:23:19;16.40;99.90
21037;DHT22;10677;50.942;4.028;2023-09-19T02:25:55;16.40;99.90
21037;DHT22;10677;50.942;4.028;2023-09-19T02:28:23;16.30;99.90
21037;DHT22;10677;50.942;4.028;2023-09-19T02:30:49;16.30;99.90
21037;DHT22;10677;50.942;4.028;2023-09-19T02:33:16;16.30;99.90
21037;DHT22;10677;50.942;4.028;2023-09-19T02:35:42;16.40;99.90
21037;DHT22;10677;50.942;4.028;2023-09-19T02:38:08;16.30;99.90
21037;DHT22;10677;50.942;4.028;2023-09-19T02:40:37;16.30;99.90
21037;DHT22;10677;50.942;4.028;2023-09-19T02:43:03;16.40;99.90
21037;DHT22;10677;50.942;4.028;2023-09-19T02:45:29;16.40;99.90
21037;DHT22;10677;50.942;4.028;2023-09-19T02:47:55;16.30;99.90
21037;DHT22;10677;50.942;4.028;2023-09-19T02:50:21;16.40;99.90
21037;DHT22;10677;50.942;4.028;2023-09-19T02:52:47;16.30;99.90
21037;DHT22;10677;50.942;4.028;2023-09-19T02:55:15;16.20;99.90
21037;DHT22;10677;50.942;4.028;2023-09-19T02:57:50;16.30;99.90
21037;DHT22;10677;50.942;4.028;2023-09-19T03:00:19;16.30;99.90
21037;DHT22;10677;50.942;4.028;2023-09-19T03:02:55;16.30;99.90
21037;DHT22;10677;50.942;4.028;2023-09-19T03:05:22;16.30;99.90
21037;DHT22;10677;50.942;4.028;2023-09-19T03:07:49;16.30;99.90
21037;DHT22;10677;50.942;4.028;2023-09-19T03:10:19;16.20;99.90
21037;DHT22;10677;50.942;4.028;2023-09-19T03:12:46;16.30;99.90
21037;DHT22;10677;50.942;4.028;2023-09-19T03:15:12;16.30;99.90
21037;DHT22;10677;50.942;4.028;2023-09-19T03:17:38;16.30;99.90
21037;DHT22;10677;50.942;4.028;2023-09-19T03:20:08;16.40;99.90
21037;DHT22;10677;50.942;4.028;2023-09-19T03:22:35;16.40;99.90
21037;DHT22;10677;50.942;4.028;2023-09-19T03:25:01;16.50;99.90
21037;DHT22;10677;50.942;4.028;2023-09-19T03:27:26;16.40;99.90
21037;DHT22;10677;50.942;4.028;2023-09-19T03:29:52;16.40;99.90
21037;DHT22;10677;50.942;4.028;2023-09-19T03:32:19;16.50;99.90
21037;DHT22;10677;50.942;4.028;2023-09-19T03:34:45;16.50;99.90
21037;DHT22;10677;50.942;4.028;2023-09-19T03:37:14;16.60;99.90
21037;DHT22;10677;50.942;4.028;2023-09-19T03:39:40;16.70;99.90
21037;DHT22;10677;50.942;4.028;2023-09-19T03:42:05;16.70;99.90
21037;DHT22;10677;50.942;4.028;2023-09-19T03:44:32;16.70;99.90
21037;DHT22;10677;50.942;4.028;2023-09-19T03:46:58;16.70;99.90
21037;DHT22;10677;50.942;4.028;2023-09-19T03:49:24;16.60;99.90
21037;DHT22;10677;50.942;4.028;2023-09-19T03:51:50;16.40;99.90
21037;DHT22;10677;50.942;4.028;2023-09-19T03:54:15;16.40;99.90
21037;DHT22;10677;50.942;4.028;2023-09-19T03:56:42;16.20;99.90
21037;DHT22;10677;50.942;4.028;2023-09-19T03:59:09;16.10;99.90
21037;DHT22;10677;50.942;4.028;2023-09-19T04:01:35;16.00;99.90
21037;DHT22;10677;50.942;4.028;2023-09-19T04:04:00;16.00;99.90
21037;DHT22;10677;50.942;4.028;2023-09-19T04:06:34;15.80;99.90
21037;DHT22;10677;50.942;4.028;2023-09-19T04:09:03;15.80;99.90
21037;DHT22;10677;50.942;4.028;2023-09-19T04:11:29;15.80;99.90
21037;DHT22;10677;50.942;4.028;2023-09-19T04:13:56;15.70;99.90
21037;DHT22;10677;50.942;4.028;2023-09-19T04:16:22;15.70;99.90
21037;DHT22;10677;50.942;4.028;2023-09-19T04:18:47;15.70;99.90
21037;DHT22;10677;50.942;4.028;2023-09-19T04:21:13;15.60;99.90
21037;DHT22;10677;50.942;4.028;2023-09-19T04:23:39;15.70;99.90
21037;DHT22;10677;50.942;4.028;2023-09-19T04:26:05;15.60;99.90
21037;DHT22;10677;50.942;4.028;2023-09-19T04:28:31;15.60;99.90
21037;DHT22;10677;50.942;4.028;2023-09-19T04:30:59;15.60;99.90
21037;DHT22;10677;50.942;4.028;2023-09-19T04:33:26;15.60;99.90
21037;DHT22;10677;50.942;4.028;2023-09-19T04:35:55;15.60;99.90
21037;DHT22;10677;50.942;4.028;2023-09-19T04:38:21;15.60;99.90
21037;DHT22;10677;50.942;4.028;2023-09-19T04:40:47;15.50;99.90
21037;DHT22;10677;50.942;4.028;2023-09-19T04:43:13;15.50;99.90
21037;DHT22;10677;50.942;4.028;2023-09-19T04:45:39;15.40;99.90
21037;DHT22;10677;50.942;4.028;2023-09-19T04:48:08;15.40;99.90
21037;DHT22;10677;50.942;4.028;2023-09-19T04:50:37;15.30;99.90
21037;DHT22;10677;50.942;4.028;2023-09-19T04:53:03;15.30;99.90
21037;DHT22;10677;50.942;4.028;2023-09-19T04:55:30;15.20;99.90
21037;DHT22;10677;50.942;4.028;2023-09-19T04:57:55;15.30;99.90
21037;DHT22;10677;50.942;4.028;2023-09-19T05:00:22;15.30;99.90
21037;DHT22;10677;50.942;4.028;2023-09-19T05:02:55;15.30;99.90
21037;DHT22;10677;50.942;4.028;2023-09-19T05:05:25;15.20;99.90
21037;DHT22;10677;50.942;4.028;2023-09-19T05:07:51;15.30;99.90
21037;DHT22;10677;50.942;4.028;2023-09-19T05:10:19;15.20;99.90
21037;DHT22;10677;50.942;4.028;2023-09-19T05:12:45;15.30;99.90
21037;DHT22;10677;50.942;4.028;2023-09-19T05:15:14;15.30;99.90
21037;DHT22;10677;50.942;4.028;2023-09-19T05:17:48;15.30;99.90
21037;DHT22;10677;50.942;4.028;2023-09-19T05:20:15;15.40;99.90
21037;DHT22;10677;50.942;4.028;2023-09-19T05:22:50;15.40;99.90
21037;DHT22;10677;50.942;4.028;2023-09-19T05:25:16;15.40;99.90
21037;DHT22;10677;50.942;4.028;2023-09-19T05:27:44;15.40;99.90
21037;DHT22;10677;50.942;4.028;2023-09-19T05:30:10;15.30;99.90
21037;DHT22;10677;50.942;4.028;2023-09-19T05:32:36;15.40;99.90
21037;DHT22;10677;50.942;4.028;2023-09-19T05:35:02;15.40;99.90
21037;DHT22;10677;50.942;4.028;2023-09-19T05:37:28;15.30;99.90
21037;DHT22;10677;50.942;4.028;2023-09-19T05:39:55;15.40;99.90
21037;DHT22;10677;50.942;4.028;2023-09-19T05:42:20;15.30;99.90
21037;DHT22;10677;50.942;4.028;2023-09-19T05:44:46;15.30;99.90
21037;DHT22;10677;50.942;4.028;2023-09-19T05:47:12;15.30;99.90
21037;DHT22;10677;50.942;4.028;2023-09-19T05:49:38;15.30;99.90
21037;DHT22;10677;50.942;4.028;2023-09-19T05:52:07;15.30;99.90
21037;DHT22;10677;50.942;4.028;2023-09-19T05:54:33;15.40;99.90
21037;DHT22;10677;50.942;4.028;2023-09-19T05:57:03;15.40;99.90
21037;DHT22;10677;50.942;4.028;2023-09-19T05:59:29;15.40;99.90
21037;DHT22;10677;50.942;4.028;2023-09-19T06:01:55;15.40;99.90
21037;DHT22;10677;50.942;4.028;2023-09-19T06:04:22;15.50;99.90
21037;DHT22;10677;50.942;4.028;2023-09-19T06:06:50;15.40;99.90
21037;DHT22;10677;50.942;4.028;2023-09-19T06:09:16;15.50;99.90
21037;DHT22;10677;50.942;4.028;2023-09-19T06:11:43;15.60;99.90
21037;DHT22;10677;50.942;4.028;2023-09-19T06:14:08;15.70;99.90
21037;DHT22;10677;50.942;4.028;2023-09-19T06:16:36;15.80;99.90
21037;DHT22;10677;50.942;4.028;2023-09-19T06:19:03;16.00;99.90
21037;DHT22;10677;50.942;4.028;2023-09-19T06:21:32;16.00;99.90
21037;DHT22;10677;50.942;4.028;2023-09-19T06:23:59;16.10;99.90
21037;DHT22;10677;50.942;4.028;2023-09-19T06:26:25;16.20;99.90
21037;DHT22;10677;50.942;4.028;2023-09-19T06:28:52;16.20;99.90
21037;DHT22;10677;50.942;4.028;2023-09-19T06:31:18;16.20;99.90
21037;DHT22;10677;50.942;4.028;2023-09-19T06:33:44;16.20;99.90
21037;DHT22;10677;50.942;4.028;2023-09-19T06:36:14;16.20;99.90
21037;DHT22;10677;50.942;4.028;2023-09-19T06:38:40;16.10;99.90
21037;DHT22;10677;50.942;4.028;2023-09-19T06:41:08;16.20;99.90
21037;DHT22;10677;50.942;4.028;2023-09-19T06:43:35;16.20;99.90
21037;DHT22;10677;50.942;4.028;2023-09-19T06:46:02;16.10;99.90
21037;DHT22;10677;50.942;4.028;2023-09-19T06:48:30;16.00;99.90
21037;DHT22;10677;50.942;4.028;2023-09-19T06:50:57;16.10;99.90
21037;DHT22;10677;50.942;4.028;2023-09-19T06:53:24;16.10;99.90
21037;DHT22;10677;50.942;4.028;2023-09-19T06:55:51;16.10;99.90
21037;DHT22;10677;50.942;4.028;2023-09-19T06:58:17;16.20;99.90
21037;DHT22;10677;50.942;4.028;2023-09-19T07:00:46;16.20;99.90
21037;DHT22;10677;50.942;4.028;2023-09-19T07:03:24;16.30;99.90
21037;DHT22;10677;50.942;4.028;2023-09-19T07:06:01;16.30;99.90
21037;DHT22;10677;50.942;4.028;2023-09-19T07:08:30;16.30;99.90
21037;DHT22;10677;50.942;4.028;2023-09-19T07:10:56;16.20;99.90
21037;DHT22;10677;50.942;4.028;2023-09-19T07:13:25;16.30;99.90
21037;DHT22;10677;50.942;4.028;2023-09-19T07:15:54;16.30;99.90
21037;DHT22;10677;50.942;4.028;2023-09-19T07:18:22;16.40;99.90
21037;DHT22;10677;50.942;4.028;2023-09-19T07:20:49;16.40;99.90
21037;DHT22;10677;50.942;4.028;2023-09-19T07:23:16;16.40;99.90
21037;DHT22;10677;50.942;4.028;2023-09-19T07:25:43;16.50;99.90
21037;DHT22;10677;50.942;4.028;2023-09-19T07:28:10;16.50;99.90
21037;DHT22;10677;50.942;4.028;2023-09-19T07:30:37;16.60;99.90
21037;DHT22;10677;50.942;4.028;2023-09-19T07:33:03;16.50;99.90
21037;DHT22;10677;50.942;4.028;2023-09-19T07:35:31;16.60;99.90
21037;DHT22;10677;50.942;4.028;2023-09-19T07:37:57;16.60;99.90
21037;DHT22;10677;50.942;4.028;2023-09-19T07:40:24;16.60;99.90
21037;DHT22;10677;50.942;4.028;2023-09-19T07:42:52;16.70;99.90
21037;DHT22;10677;50.942;4.028;2023-09-19T07:45:18;16.80;99.90
21037;DHT22;10677;50.942;4.028;2023-09-19T07:47:48;16.90;99.90
21037;DHT22;10677;50.942;4.028;2023-09-19T07:50:15;17.10;99.90
21037;DHT22;10677;50.942;4.028;2023-09-19T07:52:42;17.10;99.90
21037;DHT22;10677;50.942;4.028;2023-09-19T07:55:08;17.10;99.90
21037;DHT22;10677;50.942;4.028;2023-09-19T07:57:35;17.20;99.90
21037;DHT22;10677;50.942;4.028;2023-09-19T08:00:02;17.40;99.90
21037;DHT22;10677;50.942;4.028;2023-09-19T08:02:34;17.30;99.90
21037;DHT22;10677;50.942;4.028;2023-09-19T08:05:03;17.40;99.90
21037;DHT22;10677;50.942;4.028;2023-09-19T08:07:32;17.30;99.90
21037;DHT22;10677;50.942;4.028;2023-09-19T08:09:58;17.40;99.90
21037;DHT22;10677;50.942;4.028;2023-09-19T08:12:24;17.50;99.90
21037;DHT22;10677;50.942;4.028;2023-09-19T08:14:50;17.50;99.90
21037;DHT22;10677;50.942;4.028;2023-09-19T08:17:16;17.60;99.90
21037;DHT22;10677;50.942;4.028;2023-09-19T08:19:42;17.50;99.90
21037;DHT22;10677;50.942;4.028;2023-09-19T08:22:10;17.70;99.90
21037;DHT22;10677;50.942;4.028;2023-09-19T08:24:36;17.60;99.90
21037;DHT22;10677;50.942;4.028;2023-09-19T08:27:07;17.70;99.90
21037;DHT22;10677;50.942;4.028;2023-09-19T08:29:38;17.70;99.90
21037;DHT22;10677;50.942;4.028;2023-09-19T08:32:04;17.90;99.90
21037;DHT22;10677;50.942;4.028;2023-09-19T08:34:30;18.00;99.90
21037;DHT22;10677;50.942;4.028;2023-09-19T08:37:01;18.10;99.90
21037;DHT22;10677;50.942;4.028;2023-09-19T08:39:26;18.20;99.90
21037;DHT22;10677;50.942;4.028;2023-09-19T08:41:59;18.30;99.90
21037;DHT22;10677;50.942;4.028;2023-09-19T08:44:25;18.40;99.90
21037;DHT22;10677;50.942;4.028;2023-09-19T08:47:05;18.50;99.90
21037;DHT22;10677;50.942;4.028;2023-09-19T08:52:52;18.50;99.90
21037;DHT22;10677;50.942;4.028;2023-09-19T08:55:19;18.50;99.90
21037;DHT22;10677;50.942;4.028;2023-09-19T08:57:49;18.40;99.90
21037;DHT22;10677;50.942;4.028;2023-09-19T09:00:18;18.30;99.90
21037;DHT22;10677;50.942;4.028;2023-09-19T09:02:47;18.40;99.90
21037;DHT22;10677;50.942;4.028;2023-09-19T09:05:14;18.50;99.90
21037;DHT22;10677;50.942;4.028;2023-09-19T09:07:42;18.60;99.90
21037;DHT22;10677;50.942;4.028;2023-09-19T09:10:10;18.50;99.90
21037;DHT22;10677;50.942;4.028;2023-09-19T09:12:36;18.40;99.90
21037;DHT22;10677;50.942;4.028;2023-09-19T09:15:05;18.60;99.90
21037;DHT22;10677;50.942;4.028;2023-09-19T09:17:31;18.60;99.90
21037;DHT22;10677;50.942;4.028;2023-09-19T09:19:57;18.60;99.90
21037;DHT22;10677;50.942;4.028;2023-09-19T09:22:22;18.70;99.90
21037;DHT22;10677;50.942;4.028;2023-09-19T09:24:57;18.80;99.90
21037;DHT22;10677;50.942;4.028;2023-09-19T09:27:32;19.00;99.90
21037;DHT22;10677;50.942;4.028;2023-09-19T09:29:59;19.10;99.90
21037;DHT22;10677;50.942;4.028;2023-09-19T09:32:29;19.10;99.90
21037;DHT22;10677;50.942;4.028;2023-09-19T09:34:59;18.90;99.90
21037;DHT22;10677;50.942;4.028;2023-09-19T09:37:26;18.90;99.90
21037;DHT22;10677;50.942;4.028;2023-09-19T09:39:56;19.00;99.90
21037;DHT22;10677;50.942;4.028;2023-09-19T09:42:35;18.90;99.90
21037;DHT22;10677;50.942;4.028;2023-09-19T09:45:22;18.80;99.90
21037;DHT22;10677;50.942;4.028;2023-09-19T09:48:09;18.80;99.90
21037;DHT22;10677;50.942;4.028;2023-09-19T09:50:47;18.70;99.90
21037;DHT22;10677;50.942;4.028;2023-09-19T09:53:29;18.50;99.90
21037;DHT22;10677;50.942;4.028;2023-09-19T09:56:09;18.60;99.90
21037;DHT22;10677;50.942;4.028;2023-09-19T10:01:54;18.80;99.90
21037;DHT22;10677;50.942;4.028;2023-09-19T10:05:20;18.70;99.90
21037;DHT22;10677;50.942;4.028;2023-09-19T10:07:51;18.80;99.90
21037;DHT22;10677;50.942;4.028;2023-09-19T10:10:34;18.80;99.90
21037;DHT22;10677;50.942;4.028;2023-09-19T10:13:07;18.90;99.90
21037;DHT22;10677;50.942;4.028;2023-09-19T10:15:34;18.90;99.90
21037;DHT22;10677;50.942;4.028;2023-09-19T10:18:04;19.00;99.90
21037;DHT22;10677;50.942;4.028;2023-09-19T10:20:33;19.10;99.90
21037;DHT22;10677;50.942;4.028;2023-09-19T10:23:07;19.10;99.90
21037;DHT22;10677;50.942;4.028;2023-09-19T10:25:39;19.20;99.90
21037;DHT22;10677;50.942;4.028;2023-09-19T10:28:06;19.40;99.90
21037;DHT22;10677;50.942;4.028;2023-09-19T10:30:38;19.40;99.90
21037;DHT22;10677;50.942;4.028;2023-09-19T10:33:08;19.40;99.90
21037;DHT22;10677;50.942;4.028;2023-09-19T10:35:38;19.50;99.90
21037;DHT22;10677;50.942;4.028;2023-09-19T10:38:34;19.60;99.90
21037;DHT22;10677;50.942;4.028;2023-09-19T10:41:01;19.60;99.90
21037;DHT22;10677;50.942;4.028;2023-09-19T10:43:32;19.50;99.90
21037;DHT22;10677;50.942;4.028;2023-09-19T10:46:06;19.50;99.90
21037;DHT22;10677;50.942;4.028;2023-09-19T10:48:32;19.40;99.90
21037;DHT22;10677;50.942;4.028;2023-09-19T10:51:06;19.60;99.90
21037;DHT22;10677;50.942;4.028;2023-09-19T10:54:02;19.80;99.90
21037;DHT22;10677;50.942;4.028;2023-09-19T10:56:35;20.00;99.90
21037;DHT22;10677;50.942;4.028;2023-09-19T10:59:34;20.20;99.90
21037;DHT22;10677;50.942;4.028;2023-09-19T11:02:16;20.30;99.90
21037;DHT22;10677;50.942;4.028;2023-09-19T11:04:43;20.40;99.90
21037;DHT22;10677;50.942;4.028;2023-09-19T11:07:12;20.50;99.90
21037;DHT22;10677;50.942;4.028;2023-09-19T11:10:06;20.60;99.90
21037;DHT22;10677;50.942;4.028;2023-09-19T11:12:47;20.60;99.90
21037;DHT22;10677;50.942;4.028;2023-09-19T11:26:48;20.70;99.90
21037;DHT22;10677;50.942;4.028;2023-09-19T11:31:52;21.10;99.90
21037;DHT22;10677;50.942;4.028;2023-09-19T11:39:40;21.30;99.90
21037;DHT22;10677;50.942;4.028;2023-09-19T11:42:42;21.30;99.90
21037;DHT22;10677;50.942;4.028;2023-09-19T11:48:23;21.80;99.90
21037;DHT22;10677;50.942;4.028;2023-09-19T11:50:53;21.70;99.90
21037;DHT22;10677;50.942;4.028;2023-09-19T11:53:21;21.50;99.90
21037;DHT22;10677;50.942;4.028;2023-09-19T11:55:46;21.60;99.90
21037;DHT22;10677;50.942;4.028;2023-09-19T11:58:15;21.70;99.90
21037;DHT22;10677;50.942;4.028;2023-09-19T12:00:45;21.80;99.90
21037;DHT22;10677;50.942;4.028;2023-09-19T12:03:12;21.70;99.90
21037;DHT22;10677;50.942;4.028;2023-09-19T12:05:39;21.80;99.90
21037;DHT22;10677;50.942;4.028;2023-09-19T12:08:06;21.90;99.90
21037;DHT22;10677;50.942;4.028;2023-09-19T12:10:49;22.00;99.90
21037;DHT22;10677;50.942;4.028;2023-09-19T12:13:18;22.10;99.90
21037;DHT22;10677;50.942;4.028;2023-09-19T12:15:45;21.90;99.90
21037;DHT22;10677;50.942;4.028;2023-09-19T12:18:33;21.90;99.90
21037;DHT22;10677;50.942;4.028;2023-09-19T12:21:01;21.80;99.90
21037;DHT22;10677;50.942;4.028;2023-09-19T12:23:30;21.60;99.90
21037;DHT22;10677;50.942;4.028;2023-09-19T12:25:56;21.60;99.90
21037;DHT22;10677;50.942;4.028;2023-09-19T12:28:26;21.60;99.90
21037;DHT22;10677;50.942;4.028;2023-09-19T12:30:52;21.60;99.90
21037;DHT22;10677;50.942;4.028;2023-09-19T12:33:20;21.80;99.90
21037;DHT22;10677;50.942;4.028;2023-09-19T12:35:46;21.90;99.90
21037;DHT22;10677;50.942;4.028;2023-09-19T12:38:28;21.90;99.90
21037;DHT22;10677;50.942;4.028;2023-09-19T12:40:57;21.70;99.90
21037;DHT22;10677;50.942;4.028;2023-09-19T12:43:29;21.80;99.90
21037;DHT22;10677;50.942;4.028;2023-09-19T12:45:58;21.90;99.90
21037;DHT22;10677;50.942;4.028;2023-09-19T12:48:25;21.90;99.90
21037;DHT22;10677;50.942;4.028;2023-09-19T12:51:17;22.10;99.90
21037;DHT22;10677;50.942;4.028;2023-09-19T12:53:57;22.00;99.90
21037;DHT22;10677;50.942;4.028;2023-09-19T12:56:23;22.00;99.90
21037;DHT22;10677;50.942;4.028;2023-09-19T12:58:54;21.90;99.90
21037;DHT22;10677;50.942;4.028;2023-09-19T13:01:20;21.90;99.90
21037;DHT22;10677;50.942;4.028;2023-09-19T13:03:46;21.80;99.90
21037;DHT22;10677;50.942;4.028;2023-09-19T13:06:37;21.80;99.90
21037;DHT22;10677;50.942;4.028;2023-09-19T13:09:10;21.80;99.90
21037;DHT22;10677;50.942;4.028;2023-09-19T13:11:37;21.90;99.90
21037;DHT22;10677;50.942;4.028;2023-09-19T13:14:17;22.00;99.90
21037;DHT22;10677;50.942;4.028;2023-09-19T13:17:01;22.30;99.90
21037;DHT22;10677;50.942;4.028;2023-09-19T13:19:44;22.30;99.90
21037;DHT22;10677;50.942;4.028;2023-09-19T13:22:42;22.20;99.90
21037;DHT22;10677;50.942;4.028;2023-09-19T13:25:13;22.10;99.90
21037;DHT22;10677;50.942;4.028;2023-09-19T13:28:01;22.00;99.90
21037;DHT22;10677;50.942;4.028;2023-09-19T13:30:30;22.00;99.90
21037;DHT22;10677;50.942;4.028;2023-09-19T13:33:10;22.30;99.90
21037;DHT22;10677;50.942;4.028;2023-09-19T13:35:40;22.50;99.90
21037;DHT22;10677;50.942;4.028;2023-09-19T13:38:06;22.50;99.90
21037;DHT22;10677;50.942;4.028;2023-09-19T13:40:39;22.60;99.90
21037;DHT22;10677;50.942;4.028;2023-09-19T13:43:07;22.60;99.90
21037;DHT22;10677;50.942;4.028;2023-09-19T13:45:33;22.50;99.90
21037;DHT22;10677;50.942;4.028;2023-09-19T13:47:59;22.40;99.90
21037;DHT22;10677;50.942;4.028;2023-09-19T13:50:25;22.10;99.90
21037;DHT22;10677;50.942;4.028;2023-09-19T13:52:54;21.80;99.90
21037;DHT22;10677;50.942;4.028;2023-09-19T13:55:20;21.70;99.90
21037;DHT22;10677;50.942;4.028;2023-09-19T13:57:47;21.70;99.90
21037;DHT22;10677;50.942;4.028;2023-09-19T14:00:18;21.80;99.90
21037;DHT22;10677;50.942;4.028;2023-09-19T14:02:45;22.20;99.90
21037;DHT22;10677;50.942;4.028;2023-09-19T14:05:12;22.50;99.90
21037;DHT22;10677;50.942;4.028;2023-09-19T14:07:42;23.10;99.90
21037;DHT22;10677;50.942;4.028;2023-09-19T14:10:09;23.10;99.90
21037;DHT22;10677;50.942;4.028;2023-09-19T14:12:39;22.80;99.90
21037;DHT22;10677;50.942;4.028;2023-09-19T14:15:08;22.50;99.90
21037;DHT22;10677;50.942;4.028;2023-09-19T14:17:34;22.20;99.90
21037;DHT22;10677;50.942;4.028;2023-09-19T14:20:00;22.00;99.90
21037;DHT22;10677;50.942;4.028;2023-09-19T14:22:27;21.90;99.90
21037;DHT22;10677;50.942;4.028;2023-09-19T14:24:54;21.90;99.90
21037;DHT22;10677;50.942;4.028;2023-09-19T14:27:20;21.90;99.90
21037;DHT22;10677;50.942;4.028;2023-09-19T14:29:46;21.80;99.90
21037;DHT22;10677;50.942;4.028;2023-09-19T14:32:11;21.60;99.90
21037;DHT22;10677;50.942;4.028;2023-09-19T14:34:40;21.50;99.90
21037;DHT22;10677;50.942;4.028;2023-09-19T14:37:08;21.30;99.90
21037;DHT22;10677;50.942;4.028;2023-09-19T14:39:34;21.30;99.90
21037;DHT22;10677;50.942;4.028;2023-09-19T14:42:02;21.10;99.90
21037;DHT22;10677;50.942;4.028;2023-09-19T14:44:28;20.90;99.90
21037;DHT22;10677;50.942;4.028;2023-09-19T14:46:55;20.90;99.90
21037;DHT22;10677;50.942;4.028;2023-09-19T14:49:21;20.90;99.90
21037;DHT22;10677;50.942;4.028;2023-09-19T14:51:47;20.80;99.90
21037;DHT22;10677;50.942;4.028;2023-09-19T14:54:17;20.80;99.90
21037;DHT22;10677;50.942;4.028;2023-09-19T14:56:44;20.80;99.90
21037;DHT22;10677;50.942;4.028;2023-09-19T14:59:10;20.70;99.90
21037;DHT22;10677;50.942;4.028;2023-09-19T15:01:36;20.70;99.90
21037;DHT22;10677;50.942;4.028;2023-09-19T15:04:03;20.70;99.90
21037;DHT22;10677;50.942;4.028;2023-09-19T15:06:29;20.70;99.90
21037;DHT22;10677;50.942;4.028;2023-09-19T15:08:55;20.70;99.90
21037;DHT22;10677;50.942;4.028;2023-09-19T15:11:20;20.70;99.90
21037;DHT22;10677;50.942;4.028;2023-09-19T15:13:48;20.70;99.90
21037;DHT22;10677;50.942;4.028;2023-09-19T15:16:15;20.60;99.90
21037;DHT22;10677;50.942;4.028;2023-09-19T15:18:44;20.50;99.90
21037;DHT22;10677;50.942;4.028;2023-09-19T15:21:12;20.60;99.90
21037;DHT22;10677;50.942;4.028;2023-09-19T15:23:41;20.60;99.90
21037;DHT22;10677;50.942;4.028;2023-09-19T15:26:10;20.70;99.90
21037;DHT22;10677;50.942;4.028;2023-09-19T15:28:39;20.70;99.90
21037;DHT22;10677;50.942;4.028;2023-09-19T15:31:07;20.80;99.90
21037;DHT22;10677;50.942;4.028;2023-09-19T15:33:34;20.80;99.90
21037;DHT22;10677;50.942;4.028;2023-09-19T15:36:07;20.70;99.90
21037;DHT22;10677;50.942;4.028;2023-09-19T15:39:00;20.60;99.90
21037;DHT22;10677;50.942;4.028;2023-09-19T15:41:30;20.50;99.90
21037;DHT22;10677;50.942;4.028;2023-09-19T15:43:57;20.60;99.90
21037;DHT22;10677;50.942;4.028;2023-09-19T15:46:24;20.50;99.90
21037;DHT22;10677;50.942;4.028;2023-09-19T15:48:56;20.40;99.90
21037;DHT22;10677;50.942;4.028;2023-09-19T15:51:22;20.50;99.90
21037;DHT22;10677;50.942;4.028;2023-09-19T15:53:50;20.40;99.90
21037;DHT22;10677;50.942;4.028;2023-09-19T15:56:17;20.40;99.90
21037;DHT22;10677;50.942;4.028;2023-09-19T15:58:46;20.40;99.90
21037;DHT22;10677;50.942;4.028;2023-09-19T16:01:12;20.50;99.90
21037;DHT22;10677;50.942;4.028;2023-09-19T16:03:43;20.50;99.90
21037;DHT22;10677;50.942;4.028;2023-09-19T16:06:16;20.60;99.90
21037;DHT22;10677;50.942;4.028;2023-09-19T16:08:44;20.50;99.90
21037;DHT22;10677;50.942;4.028;2023-09-19T16:11:11;20.50;99.90
21037;DHT22;10677;50.942;4.028;2023-09-19T16:13:40;20.40;99.90
21037;DHT22;10677;50.942;4.028;2023-09-19T16:16:07;20.40;99.90
21037;DHT22;10677;50.942;4.028;2023-09-19T16:18:34;20.30;99.90
21037;DHT22;10677;50.942;4.028;2023-09-19T16:21:03;20.20;99.90